Burna, Kentucky
Current Conditions -  °F | °C
As of 8:35 AM on Friday 24 Oct 2014 (Local Time) from K5M9 Reporting Station
Clear Clear  
Wind Chill:   Ceiling: Unl
Heat Index: 10°   Visibility: 10mi
Dew Point:   Wind: 5mph
Humidity: 89%   Direction: 240°WSW
Pressure: 30.14"   Gusts: NA
Location:  37.25°N, 88.36°W
Report Text: K5M9 241335Z AUTO 24004KT 10SM CLR 10/08 A3014 RMK AO2 T00970079
Loading
Personal Weather Stations






























Interactive Weather Map
Tropical Storm Tracking
New forecast layout! Learn more

10-Day Weather Forecast

Advertisements
Track Severe Weather on mobile